createdAt,value
2022-12-17T00:01:03.809Z,86.26
2022-12-17T00:03:49.582Z,86.52
2022-12-17T00:06:35.748Z,86.43
2022-12-17T00:09:32.881Z,86.77
2022-12-17T00:12:18.259Z,86.36
2022-12-17T00:15:03.400Z,86.10
2022-12-17T00:17:50.035Z,88.99
2022-12-17T00:20:35.253Z,87.51
2022-12-17T00:23:22.519Z,86.34
2022-12-17T00:26:12.066Z,85.83
2022-12-17T00:28:57.829Z,86.23
2022-12-17T00:31:45.120Z,85.63
2022-12-17T00:34:37.437Z,88.15
2022-12-17T00:37:23.059Z,86.64
2022-12-17T00:40:08.284Z,86.09
2022-12-17T00:42:53.652Z,87.35
2022-12-17T00:45:41.818Z,86.12
2022-12-17T00:48:27.121Z,86.19
2022-12-17T00:51:15.352Z,84.56
2022-12-17T00:54:00.701Z,83.92
2022-12-17T00:56:46.035Z,83.56
2022-12-17T00:59:39.711Z,83.52
2022-12-17T01:02:25.312Z,83.06
2022-12-17T01:05:11.268Z,81.88
2022-12-17T01:07:57.888Z,81.35
2022-12-17T01:10:44.820Z,81.16
2022-12-17T01:13:32.276Z,81.74
2022-12-17T01:16:21.959Z,81.71
2022-12-17T01:19:07.286Z,81.30
2022-12-17T01:21:53.409Z,81.64
2022-12-17T01:24:40.455Z,83.19
2022-12-17T01:27:26.829Z,83.23
2022-12-17T01:30:12.710Z,83.47
2022-12-17T01:32:58.017Z,82.57
2022-12-17T01:35:43.398Z,83.42
2022-12-17T01:38:29.750Z,84.23
2022-12-17T01:41:16.801Z,84.27
2022-12-17T01:44:02.227Z,86.15
2022-12-17T01:46:51.690Z,86.81
2022-12-17T01:49:38.285Z,85.64
2022-12-17T01:52:24.159Z,86.16
2022-12-17T01:55:09.634Z,85.63
2022-12-17T01:57:57.175Z,85.88
2022-12-17T02:00:43.042Z,88.05
2022-12-17T02:03:33.468Z,86.98
2022-12-17T02:06:29.268Z,89.01
2022-12-17T02:09:27.556Z,88.70
2022-12-17T02:12:25.780Z,89.03
2022-12-17T02:15:20.122Z,88.98
2022-12-17T02:18:11.891Z,88.53
2022-12-17T02:21:01.017Z,86.72
2022-12-17T02:23:57.665Z,85.88
2022-12-17T02:26:55.758Z,87.92
2022-12-17T02:29:43.546Z,87.97
2022-12-17T02:32:31.925Z,86.74
2022-12-17T02:35:20.019Z,87.09
2022-12-17T02:38:05.700Z,85.85
2022-12-17T02:40:50.187Z,86.92
2022-12-17T02:43:38.497Z,86.79
2022-12-17T02:46:25.428Z,85.81
2022-12-17T02:49:11.295Z,85.94
2022-12-17T02:51:57.538Z,83.88
2022-12-17T02:54:47.964Z,82.52
2022-12-17T02:57:33.309Z,81.93
2022-12-17T03:00:20.547Z,80.93
2022-12-17T03:03:08.158Z,80.14
2022-12-17T03:05:53.663Z,79.48
2022-12-17T03:08:39.006Z,80.84
2022-12-17T03:11:24.344Z,80.53
2022-12-17T03:14:10.557Z,80.20
2022-12-17T03:16:57.765Z,79.79
2022-12-17T03:19:43.009Z,81.45
2022-12-17T03:22:28.398Z,81.86
2022-12-17T03:25:13.967Z,81.79
2022-12-17T03:27:59.643Z,80.27
2022-12-17T03:30:48.929Z,79.76
2022-12-17T03:33:36.372Z,79.14
2022-12-17T03:36:22.368Z,78.68
2022-12-17T03:39:06.851Z,79.10
2022-12-17T03:41:52.335Z,78.60
2022-12-17T03:44:37.626Z,78.44
2022-12-17T03:47:22.875Z,78.35
2022-12-17T03:50:09.529Z,78.24
2022-12-17T03:52:54.899Z,78.16
2022-12-17T03:55:40.245Z,78.12
2022-12-17T03:58:25.877Z,78.50
2022-12-17T04:01:11.418Z,78.14
2022-12-17T04:03:56.919Z,78.52
2022-12-17T04:06:43.495Z,78.16
2022-12-17T04:09:28.828Z,78.21
2022-12-17T04:12:14.132Z,78.32
2022-12-17T04:14:59.431Z,77.65
2022-12-17T04:17:45.308Z,77.75
2022-12-17T04:20:30.717Z,77.67
2022-12-17T04:23:17.747Z,77.44
2022-12-17T04:26:03.039Z,77.47
2022-12-17T04:28:48.281Z,78.86
2022-12-17T04:31:33.740Z,78.66
2022-12-17T04:34:30.717Z,78.37
2022-12-17T04:37:16.066Z,77.51
2022-12-17T04:40:02.695Z,76.82
2022-12-17T04:42:48.261Z,76.40
2022-12-17T04:45:33.813Z,75.91
2022-12-17T04:48:20.701Z,75.63
2022-12-17T04:51:17.455Z,75.48
2022-12-17T04:54:02.810Z,75.77
2022-12-17T04:56:49.865Z,74.90
2022-12-17T04:59:35.255Z,75.33
2022-12-17T05:02:20.572Z,75.02
2022-12-17T05:05:06.315Z,74.67
2022-12-17T05:07:51.632Z,74.71
2022-12-17T05:10:42.215Z,74.99
2022-12-17T05:13:29.133Z,74.77
2022-12-17T05:16:14.965Z,75.10
2022-12-17T05:19:00.723Z,74.94
2022-12-17T05:21:46.651Z,75.96
2022-12-17T05:24:31.977Z,76.17
2022-12-17T05:27:17.444Z,76.12
2022-12-17T05:30:04.707Z,77.08
2022-12-17T05:32:49.951Z,76.37
2022-12-17T05:35:35.974Z,76.01
2022-12-17T05:38:23.365Z,75.64
2022-12-17T05:41:09.713Z,76.35
2022-12-17T05:43:55.110Z,77.32
2022-12-17T05:46:42.309Z,77.98
2022-12-17T05:49:27.621Z,79.04
2022-12-17T05:52:13.198Z,79.83
2022-12-17T05:54:58.426Z,81.81
2022-12-17T05:57:43.852Z,80.18
2022-12-17T06:00:30.335Z,81.86
2022-12-17T06:03:18.957Z,81.61
2022-12-17T06:06:04.278Z,80.58
2022-12-17T06:08:49.790Z,80.63
2022-12-17T06:11:35.007Z,81.14
2022-12-17T06:14:20.535Z,81.85
2022-12-17T06:17:05.716Z,83.15
2022-12-17T06:19:52.964Z,83.06
2022-12-17T06:22:38.750Z,83.20
2022-12-17T06:25:27.109Z,81.79
2022-12-17T06:28:17.060Z,82.13
2022-12-17T06:31:09.326Z,81.93
2022-12-17T06:33:56.226Z,82.62
2022-12-17T06:36:43.343Z,84.11
2022-12-17T06:39:40.142Z,82.45
2022-12-17T06:42:26.048Z,80.93
2022-12-17T06:45:11.303Z,81.19
2022-12-17T06:47:56.614Z,80.55
2022-12-17T06:50:41.734Z,79.83
2022-12-17T06:53:29.739Z,79.17
2022-12-17T06:56:17.110Z,78.29
2022-12-17T06:59:02.332Z,78.44
2022-12-17T07:01:48.676Z,79.61
2022-12-17T07:04:34.407Z,80.23
2022-12-17T07:07:20.104Z,80.14
2022-12-17T07:10:13.617Z,80.25
2022-12-17T07:13:01.858Z,80.89
2022-12-17T07:15:48.143Z,81.26
2022-12-17T07:18:33.355Z,80.86
2022-12-17T07:21:18.730Z,80.71
2022-12-17T07:24:04.159Z,81.81
2022-12-17T07:27:02.561Z,82.29
2022-12-17T07:29:48.075Z,82.44
2022-12-17T07:32:33.389Z,80.84
2022-12-17T07:35:18.826Z,80.06
2022-12-17T07:38:04.141Z,80.04
2022-12-17T07:40:49.788Z,79.36
2022-12-17T07:43:37.213Z,78.22
2022-12-17T07:46:23.438Z,78.12
2022-12-17T07:49:14.611Z,80.45
2022-12-17T07:52:02.668Z,81.36
2022-12-17T07:54:47.977Z,81.75
2022-12-17T07:57:33.726Z,81.27
2022-12-17T08:00:20.623Z,81.17
2022-12-17T08:03:06.625Z,80.31
2022-12-17T08:05:52.511Z,80.70
2022-12-17T08:08:37.899Z,80.22
2022-12-17T08:11:25.870Z,79.58
2022-12-17T08:14:11.703Z,79.43
2022-12-17T08:16:58.504Z,83.77
2022-12-17T08:19:44.141Z,81.22
2022-12-17T08:22:29.537Z,81.18
2022-12-17T08:25:15.070Z,80.70
2022-12-17T08:28:01.112Z,80.15
2022-12-17T08:30:51.513Z,80.02
2022-12-17T08:33:38.489Z,79.64
2022-12-17T08:36:24.279Z,79.89
2022-12-17T08:39:09.520Z,80.41
2022-12-17T08:41:57.444Z,80.48
2022-12-17T08:44:45.115Z,80.00
2022-12-17T08:47:30.456Z,80.04
2022-12-17T08:50:17.476Z,80.45
2022-12-17T08:53:02.661Z,78.99
2022-12-17T08:55:48.049Z,79.74
2022-12-17T08:58:33.406Z,80.14
2022-12-17T09:01:20.058Z,80.29
2022-12-17T09:04:06.129Z,80.54
2022-12-17T09:06:52.685Z,79.63
2022-12-17T09:09:39.464Z,80.82
2022-12-17T09:12:25.439Z,80.03
2022-12-17T09:15:10.771Z,79.38
2022-12-17T09:17:56.163Z,80.11
2022-12-17T09:20:41.394Z,80.55
2022-12-17T09:23:28.067Z,79.02
2022-12-17T09:26:14.992Z,78.57
2022-12-17T09:29:01.182Z,76.67
2022-12-17T09:31:46.464Z,77.27
2022-12-17T09:34:31.927Z,77.26
2022-12-17T09:37:17.660Z,79.80
2022-12-17T09:40:04.690Z,79.36
2022-12-17T09:42:59.936Z,76.80
2022-12-17T09:45:51.505Z,76.27
2022-12-17T09:48:41.906Z,77.66
2022-12-17T09:51:39.776Z,79.18
2022-12-17T09:54:33.549Z,78.07
2022-12-17T09:57:20.584Z,77.48
2022-12-17T10:00:05.954Z,77.11
2022-12-17T10:02:58.298Z,78.83
2022-12-17T10:05:49.647Z,76.82
2022-12-17T10:08:39.114Z,76.65
2022-12-17T10:11:35.717Z,76.19
2022-12-17T10:14:30.656Z,76.12
2022-12-17T10:17:16.203Z,73.77
2022-12-17T10:20:01.991Z,76.44
2022-12-17T10:22:47.666Z,77.30
2022-12-17T10:25:35.529Z,78.52
2022-12-17T10:28:23.636Z,75.03
2022-12-17T10:31:10.585Z,75.82
2022-12-17T10:33:58.997Z,73.58
2022-12-17T10:36:45.848Z,71.94
2022-12-17T10:39:35.017Z,72.76
2022-12-17T10:42:20.891Z,73.34
2022-12-17T10:45:14.583Z,72.72
2022-12-17T10:48:02.958Z,73.66
2022-12-17T10:51:06.319Z,73.90
2022-12-17T10:53:52.155Z,72.80
2022-12-17T10:56:41.493Z,73.82
2022-12-17T10:59:31.565Z,73.44
2022-12-17T11:02:18.210Z,72.29
2022-12-17T11:05:12.063Z,71.75
2022-12-17T11:08:01.979Z,71.81
2022-12-17T11:10:51.360Z,70.66
2022-12-17T11:13:47.558Z,71.77
2022-12-17T11:16:39.502Z,72.57
2022-12-17T11:19:44.306Z,72.00
2022-12-17T11:22:40.156Z,72.69
2022-12-17T11:25:45.506Z,71.43
2022-12-17T11:28:38.008Z,71.73
2022-12-17T11:31:33.779Z,73.47
2022-12-17T11:34:28.804Z,75.59
2022-12-17T11:37:24.688Z,74.55
2022-12-17T11:40:20.002Z,76.01
2022-12-17T11:43:14.126Z,75.43
2022-12-17T11:46:11.152Z,77.01
2022-12-17T11:49:02.781Z,78.03
2022-12-17T11:51:55.300Z,77.39
2022-12-17T11:54:46.916Z,77.46
2022-12-17T11:57:41.463Z,76.93
2022-12-17T12:00:35.150Z,77.34
2022-12-17T12:03:37.164Z,79.34
2022-12-17T12:06:32.122Z,77.11
2022-12-17T12:09:29.596Z,78.31
2022-12-17T12:12:23.182Z,78.48
2022-12-17T12:15:20.035Z,79.60
2022-12-17T12:18:12.463Z,79.36
2022-12-17T12:21:25.105Z,78.96
2022-12-17T12:24:22.588Z,78.38
2022-12-17T12:27:15.182Z,78.65
2022-12-17T12:30:07.523Z,79.69
2022-12-17T12:33:05.488Z,78.71
2022-12-17T12:35:56.447Z,79.09
2022-12-17T12:38:48.777Z,79.56
2022-12-17T12:41:46.608Z,79.97
2022-12-17T12:44:46.936Z,78.23
2022-12-17T12:47:42.692Z,79.71
2022-12-17T12:50:37.893Z,79.76
2022-12-17T12:53:23.655Z,79.02
2022-12-17T12:56:14.452Z,79.83
2022-12-17T12:59:00.204Z,79.05
2022-12-17T13:01:56.744Z,79.53
2022-12-17T13:04:49.635Z,79.07
2022-12-17T13:07:28.566Z,77.67
2022-12-17T13:09:58.264Z,79.06
2022-12-17T13:12:32.301Z,79.66
2022-12-17T13:15:12.239Z,80.47
2022-12-17T13:17:44.433Z,80.82
2022-12-17T13:20:28.263Z,79.75
2022-12-17T13:23:16.805Z,80.46
2022-12-17T13:25:45.253Z,80.93
2022-12-17T13:28:30.775Z,81.32
2022-12-17T13:31:03.750Z,80.77
2022-12-17T13:33:41.149Z,79.93
2022-12-17T13:36:15.288Z,79.23
2022-12-17T13:38:53.168Z,79.34
2022-12-17T13:41:27.486Z,79.87
2022-12-17T13:43:58.016Z,79.89
2022-12-17T13:46:27.974Z,80.62
2022-12-17T13:48:58.678Z,81.43
2022-12-17T13:51:29.051Z,81.03
2022-12-17T13:53:59.966Z,81.12
2022-12-17T13:56:31.268Z,79.84
2022-12-17T13:59:08.468Z,80.71
2022-12-17T14:01:46.586Z,81.16
2022-12-17T14:04:22.860Z,82.83
2022-12-17T14:06:52.732Z,83.00
2022-12-17T14:09:25.382Z,81.77
2022-12-17T14:12:11.219Z,83.41
2022-12-17T14:14:41.605Z,83.07
2022-12-17T14:17:18.562Z,83.80
2022-12-17T14:19:46.911Z,82.81
2022-12-17T14:22:20.815Z,83.11
2022-12-17T14:24:50.311Z,82.17
2022-12-17T14:27:27.605Z,82.52
2022-12-17T14:29:56.984Z,83.45
2022-12-17T14:32:27.824Z,83.17
2022-12-17T14:35:00.458Z,83.80
2022-12-17T14:37:30.364Z,84.50
2022-12-17T14:40:04.106Z,84.50
2022-12-17T14:42:37.104Z,83.75
2022-12-17T14:45:21.720Z,83.37
2022-12-17T14:47:54.735Z,83.87
2022-12-17T14:50:29.429Z,84.59
2022-12-17T14:52:59.123Z,83.72
2022-12-17T14:55:34.600Z,84.85
2022-12-17T14:58:21.219Z,85.03
2022-12-17T15:00:53.928Z,84.55
2022-12-17T15:03:25.642Z,85.09
2022-12-17T15:05:58.115Z,84.88
2022-12-17T15:08:35.783Z,85.49
2022-12-17T15:11:05.703Z,86.23
2022-12-17T15:13:33.793Z,86.15
2022-12-17T15:16:01.921Z,85.80
2022-12-17T15:18:29.888Z,86.02
2022-12-17T15:20:57.983Z,85.18
2022-12-17T15:23:26.390Z,85.13
2022-12-17T15:25:55.559Z,85.08
2022-12-17T15:28:25.416Z,85.60
2022-12-17T15:30:53.703Z,85.37
2022-12-17T15:33:21.730Z,84.59
2022-12-17T15:35:49.782Z,85.73
2022-12-17T15:38:25.293Z,85.17
2022-12-17T15:40:53.420Z,84.49
2022-12-17T15:43:20.510Z,83.88
2022-12-17T15:45:51.381Z,85.10
2022-12-17T15:48:21.616Z,85.55
2022-12-17T15:50:50.030Z,85.83
2022-12-17T15:53:18.009Z,85.73
2022-12-17T15:55:46.071Z,85.88
2022-12-17T15:58:14.107Z,85.54
2022-12-17T16:00:42.115Z,86.07
2022-12-17T16:03:11.695Z,85.38
2022-12-17T16:05:39.754Z,86.01
2022-12-17T16:08:07.901Z,86.21
2022-12-17T16:10:35.926Z,85.74
2022-12-17T16:13:03.950Z,86.11
2022-12-17T16:15:31.955Z,85.60
2022-12-17T16:18:00.043Z,85.57
2022-12-17T16:20:29.369Z,86.34
2022-12-17T16:22:57.355Z,85.06
2022-12-17T16:25:25.371Z,85.65
2022-12-17T16:27:53.337Z,86.27
2022-12-17T16:30:21.407Z,85.49
2022-12-17T16:32:49.423Z,85.44
2022-12-17T16:35:17.571Z,85.35
2022-12-17T16:37:46.942Z,85.70
2022-12-17T16:40:14.931Z,86.38
2022-12-17T16:42:42.933Z,85.83
2022-12-17T16:45:11.553Z,85.39
2022-12-17T16:47:39.941Z,85.99
2022-12-17T16:50:08.157Z,85.55
2022-12-17T16:52:36.355Z,87.55
2022-12-17T16:55:06.265Z,87.15
2022-12-17T16:57:34.316Z,86.71
2022-12-17T17:00:02.386Z,86.18
2022-12-17T17:02:30.615Z,85.66
2022-12-17T17:04:58.807Z,85.86
2022-12-17T17:07:26.890Z,86.03
2022-12-17T17:09:54.910Z,86.35
2022-12-17T17:12:25.510Z,85.78
2022-12-17T17:14:53.499Z,85.04
2022-12-17T17:17:54.319Z,83.74
2022-12-17T17:20:12.467Z,85.00
2022-12-17T17:22:40.900Z,84.69
2022-12-17T17:25:09.441Z,84.55
2022-12-17T17:27:38.934Z,85.67
2022-12-17T17:30:07.973Z,85.33
2022-12-17T17:32:36.022Z,85.85
2022-12-17T17:35:04.217Z,86.01
2022-12-17T17:37:32.316Z,86.98
2022-12-17T17:40:00.585Z,86.56
2022-12-17T17:42:28.615Z,85.41
2022-12-17T17:44:58.004Z,86.12
2022-12-17T17:47:25.976Z,85.52
2022-12-17T17:49:54.119Z,86.21
2022-12-17T17:52:22.104Z,84.66
2022-12-17T17:54:50.132Z,86.31
2022-12-17T17:57:18.186Z,85.40
2022-12-17T17:59:46.268Z,85.49
2022-12-17T18:02:15.722Z,85.09
2022-12-17T18:04:43.893Z,85.21
2022-12-17T18:07:28.472Z,85.04
2022-12-17T18:09:56.875Z,84.77
2022-12-17T18:12:42.383Z,84.47
2022-12-17T18:15:14.835Z,85.31
2022-12-17T18:17:45.767Z,83.83
2022-12-17T18:20:14.797Z,84.30
2022-12-17T18:22:42.890Z,85.52
2022-12-17T18:25:10.922Z,84.78
2022-12-17T18:27:39.030Z,84.30
2022-12-17T18:30:08.012Z,84.38
2022-12-17T18:32:36.002Z,83.85
2022-12-17T18:35:06.354Z,84.44
2022-12-17T18:37:34.573Z,84.82
2022-12-17T18:40:02.600Z,84.53
2022-12-17T18:42:48.204Z,85.04
2022-12-17T18:45:16.552Z,84.31
2022-12-17T18:47:44.862Z,83.92
2022-12-17T18:50:14.738Z,84.90
2022-12-17T18:52:42.734Z,84.49
2022-12-17T18:55:10.888Z,84.81
2022-12-17T18:57:38.851Z,86.00
2022-12-17T19:00:08.411Z,85.37
2022-12-17T19:02:36.513Z,84.47
2022-12-17T19:05:05.188Z,85.21
2022-12-17T19:07:34.590Z,85.82
2022-12-17T19:10:02.599Z,85.83
2022-12-17T19:12:30.806Z,85.70
2022-12-17T19:14:58.827Z,85.23
2022-12-17T19:17:26.876Z,83.65
2022-12-17T19:19:54.920Z,84.39
2022-12-17T19:22:23.005Z,83.39
2022-12-17T19:24:52.431Z,84.10
2022-12-17T19:27:20.475Z,85.51
2022-12-17T19:29:49.919Z,85.44
2022-12-17T19:32:18.685Z,85.71
2022-12-17T19:34:46.683Z,85.75
2022-12-17T19:37:14.737Z,84.65
2022-12-17T19:39:42.874Z,84.33
2022-12-17T19:42:24.951Z,84.36
2022-12-17T19:44:54.134Z,85.31
2022-12-17T19:47:23.301Z,83.81
2022-12-17T19:49:51.625Z,83.96
2022-12-17T19:52:19.808Z,83.94
2022-12-17T19:54:49.802Z,83.77
2022-12-17T19:57:19.160Z,83.03
2022-12-17T19:59:47.373Z,84.02
2022-12-17T20:02:17.530Z,84.58
2022-12-17T20:04:45.730Z,84.49
2022-12-17T20:07:13.716Z,84.08
2022-12-17T20:09:44.181Z,83.57
2022-12-17T20:12:12.583Z,83.67
2022-12-17T20:14:42.061Z,83.18
2022-12-17T20:17:11.093Z,83.43
2022-12-17T20:19:39.180Z,83.58
2022-12-17T20:22:07.856Z,83.66
2022-12-17T20:24:37.401Z,83.59
2022-12-17T20:27:05.882Z,83.00
2022-12-17T20:29:33.940Z,83.28
2022-12-17T20:32:03.924Z,82.19
2022-12-17T20:34:32.310Z,81.35
2022-12-17T20:37:00.347Z,82.74
2022-12-17T20:39:28.600Z,82.79
2022-12-17T20:41:57.315Z,83.02
2022-12-17T20:44:25.522Z,84.65
2022-12-17T20:46:53.861Z,84.92
2022-12-17T20:49:23.374Z,85.07
2022-12-17T20:51:51.450Z,84.24
2022-12-17T20:54:19.601Z,84.44
2022-12-17T20:56:47.710Z,83.86
2022-12-17T20:59:17.691Z,83.66
2022-12-17T21:01:49.190Z,84.59
2022-12-17T21:04:20.945Z,85.23
2022-12-17T21:06:50.395Z,85.20
2022-12-17T21:09:20.965Z,85.95
2022-12-17T21:11:49.724Z,85.56
2022-12-17T21:14:19.764Z,84.64
2022-12-17T21:16:48.247Z,84.71
2022-12-17T21:19:18.330Z,84.77
2022-12-17T21:21:46.600Z,83.65
2022-12-17T21:24:16.081Z,83.45
2022-12-17T21:26:45.909Z,83.92
2022-12-17T21:29:15.221Z,84.07
2022-12-17T21:31:45.965Z,84.48
2022-12-17T21:34:15.622Z,83.90
2022-12-17T21:36:44.547Z,84.68
2022-12-17T21:39:14.406Z,85.11
2022-12-17T21:42:05.842Z,84.78
2022-12-17T21:44:33.866Z,85.00
2022-12-17T21:47:02.332Z,84.23
2022-12-17T21:49:30.565Z,83.80
2022-12-17T21:52:00.144Z,84.50
2022-12-17T21:54:28.461Z,84.77
2022-12-17T21:56:57.899Z,84.75
2022-12-17T21:59:25.953Z,84.49
2022-12-17T22:01:54.476Z,82.19
2022-12-17T22:04:22.664Z,82.05
2022-12-17T22:06:53.256Z,81.74
2022-12-17T22:09:41.959Z,82.51
2022-12-17T22:12:32.030Z,83.43
2022-12-17T22:15:00.100Z,82.68
2022-12-17T22:17:29.651Z,83.42
2022-12-17T22:19:57.669Z,83.27
2022-12-17T22:22:25.665Z,82.86
2022-12-17T22:24:53.869Z,81.99
2022-12-17T22:27:24.121Z,83.03
2022-12-17T22:30:09.709Z,82.71
2022-12-17T22:32:55.001Z,82.19
2022-12-17T22:35:49.032Z,82.43
2022-12-17T22:40:47.344Z,82.44
2022-12-17T22:44:32.292Z,82.08
2022-12-17T22:44:46.465Z,82.17
2022-12-17T22:46:42.720Z,81.64
2022-12-17T22:49:11.137Z,81.49
2022-12-17T22:51:40.851Z,81.25
2022-12-17T22:54:12.146Z,81.97
2022-12-17T22:57:06.116Z,81.01
2022-12-17T22:59:31.985Z,79.93
2022-12-17T23:02:00.158Z,80.40
2022-12-17T23:04:28.242Z,80.22
2022-12-17T23:06:56.315Z,80.70
2022-12-17T23:09:24.300Z,81.63
2022-12-17T23:11:52.361Z,81.27
2022-12-17T23:14:20.531Z,80.35
2022-12-17T23:16:50.024Z,81.80
2022-12-17T23:19:20.536Z,81.71
2022-12-17T23:21:48.571Z,82.55
2022-12-17T23:24:16.604Z,82.14
2022-12-17T23:26:44.612Z,81.89
2022-12-17T23:29:19.429Z,81.64
2022-12-17T23:31:49.360Z,80.49
2022-12-17T23:34:17.452Z,80.11
2022-12-17T23:36:45.544Z,80.22
2022-12-17T23:39:13.586Z,80.73
2022-12-17T23:41:41.616Z,80.19
2022-12-17T23:44:09.677Z,81.32
2022-12-17T23:46:37.800Z,81.56
2022-12-17T23:49:07.495Z,81.46
2022-12-17T23:51:35.605Z,81.31
2022-12-17T23:54:03.827Z,80.97
2022-12-17T23:56:31.802Z,81.19
2022-12-17T23:59:01.672Z,81.43
